OMAM/DHF METAR and TAF weather

Enter ICAO airport designator
Station Type Date Time Source
OMAM METAR 2014/01/16 09:30 UTC NOAA

OMAM 160930Z 31011KT 9999 FEW035 21/12 Q1019 A3009


Station Type Date Time Source
OMAM Decoded METAR 2014/01/16 09:30 UTC NOAA

Station name not available
Jan 16, 2014 - 04:30 AM EST / 2014.01.16 0930 UTC
Wind: from the NW (310 degrees) at 13 MPH (11 KT):0
Visibility: greater than 7 mile(s):0
Sky conditions: mostly clear
Temperature: 69 F (21 C)
Dew Point: 53 F (12 C)
Relative Humidity: 56%
Pressure (altimeter): 30.09 in. Hg (1018 hPa)
ob: OMAM 160930Z 31011KT 9999 FEW035 21/12 Q1019 A3009
cycle: 9

Station Type Date Time Source
OMAM TAF 2015/04/12 06:25 UTC NOAA

TAF OMAM 120525Z 1206/1312 16006KT CAVOK
BECMG 1213/1215 04009KT
BECMG 1221/1223 14006KT
BECMG 1309/1311 31013KT


Example: see airport list